sensor_id;sensor_type;location;lat;lon;timestamp;pressure;altitude;pressure_sealevel;temperature;humidity
1371;BME280;14306;49.942;11.570;2022-10-22T00:02:09;97215.19;;;14.33;97.67
1371;BME280;14306;49.942;11.570;2022-10-22T00:04:35;97207.66;;;14.51;97.48
1371;BME280;14306;49.942;11.570;2022-10-22T00:07:00;97210.13;;;14.44;97.34
1371;BME280;14306;49.942;11.570;2022-10-22T00:09:26;97214.25;;;14.29;97.91
1371;BME280;14306;49.942;11.570;2022-10-22T00:11:51;97217.91;;;14.33;98.16
1371;BME280;14306;49.942;11.570;2022-10-22T00:14:16;97213.78;;;14.27;97.96
1371;BME280;14306;49.942;11.570;2022-10-22T00:16:42;97207.06;;;14.25;98.30
1371;BME280;14306;49.942;11.570;2022-10-22T00:19:08;97213.31;;;14.25;98.72
1371;BME280;14306;49.942;11.570;2022-10-22T00:21:34;97216.69;;;14.22;98.11
1371;BME280;14306;49.942;11.570;2022-10-22T00:24:00;97205.00;;;14.22;98.64
1371;BME280;14306;49.942;11.570;2022-10-22T00:26:25;97206.75;;;14.18;98.80
1371;BME280;14306;49.942;11.570;2022-10-22T00:28:50;97208.59;;;14.55;96.57
1371;BME280;14306;49.942;11.570;2022-10-22T00:31:16;97214.78;;;14.76;96.14
1371;BME280;14306;49.942;11.570;2022-10-22T00:33:45;97207.78;;;14.87;94.36
1371;BME280;14306;49.942;11.570;2022-10-22T00:36:11;97209.97;;;14.93;93.80
1371;BME280;14306;49.942;11.570;2022-10-22T00:38:36;97214.88;;;15.00;94.31
1371;BME280;14306;49.942;11.570;2022-10-22T00:41:02;97217.50;;;14.76;94.99
1371;BME280;14306;49.942;11.570;2022-10-22T00:43:27;97219.13;;;14.77;95.19
1371;BME280;14306;49.942;11.570;2022-10-22T00:45:52;97220.69;;;14.98;94.45
1371;BME280;14306;49.942;11.570;2022-10-22T00:48:23;97213.13;;;14.83;94.84
1371;BME280;14306;49.942;11.570;2022-10-22T00:51:02;97218.28;;;14.64;95.24
1371;BME280;14306;49.942;11.570;2022-10-22T00:53:35;97218.72;;;14.66;96.37
1371;BME280;14306;49.942;11.570;2022-10-22T00:56:02;97211.88;;;14.81;95.58
1371;BME280;14306;49.942;11.570;2022-10-22T00:58:30;97209.88;;;14.69;95.31
1371;BME280;14306;49.942;11.570;2022-10-22T01:00:57;97220.34;;;14.67;95.80
1371;BME280;14306;49.942;11.570;2022-10-22T01:03:23;97216.03;;;14.78;95.44
1371;BME280;14306;49.942;11.570;2022-10-22T01:05:56;97221.13;;;14.68;95.86
1371;BME280;14306;49.942;11.570;2022-10-22T01:11:54;97212.41;;;14.74;95.78
1371;BME280;14306;49.942;11.570;2022-10-22T01:14:51;97202.63;;;14.73;95.52
1371;BME280;14306;49.942;11.570;2022-10-22T01:17:37;97189.16;;;14.89;95.27
1371;BME280;14306;49.942;11.570;2022-10-22T01:26:05;97203.69;;;14.81;95.07
1371;BME280;14306;49.942;11.570;2022-10-22T01:28:56;97192.88;;;14.52;96.29
1371;BME280;14306;49.942;11.570;2022-10-22T01:31:28;97187.44;;;14.52;96.57
1371;BME280;14306;49.942;11.570;2022-10-22T01:33:56;97183.69;;;14.44;97.12
1371;BME280;14306;49.942;11.570;2022-10-22T01:36:22;97183.56;;;14.53;96.99
1371;BME280;14306;49.942;11.570;2022-10-22T01:38:48;97181.19;;;14.51;96.89
1371;BME280;14306;49.942;11.570;2022-10-22T01:41:14;97183.31;;;14.46;96.93
1371;BME280;14306;49.942;11.570;2022-10-22T01:43:39;97183.38;;;14.58;95.45
1371;BME280;14306;49.942;11.570;2022-10-22T01:46:05;97176.28;;;14.77;96.00
1371;BME280;14306;49.942;11.570;2022-10-22T01:49:06;97175.50;;;14.44;96.67
1371;BME280;14306;49.942;11.570;2022-10-22T01:52:02;97178.06;;;14.41;97.25
1371;BME280;14306;49.942;11.570;2022-10-22T01:54:49;97178.53;;;14.63;96.56
1371;BME280;14306;49.942;11.570;2022-10-22T01:57:28;97170.47;;;14.67;95.99
1371;BME280;14306;49.942;11.570;2022-10-22T02:05:10;97173.59;;;14.57;96.48
1371;BME280;14306;49.942;11.570;2022-10-22T02:07:46;97172.50;;;14.58;96.10
1371;BME280;14306;49.942;11.570;2022-10-22T02:10:14;97174.13;;;14.71;95.46
1371;BME280;14306;49.942;11.570;2022-10-22T02:12:42;97173.41;;;14.62;96.54
1371;BME280;14306;49.942;11.570;2022-10-22T02:15:11;97170.22;;;14.60;96.25
1371;BME280;14306;49.942;11.570;2022-10-22T02:17:38;97170.28;;;14.51;96.56
1371;BME280;14306;49.942;11.570;2022-10-22T02:20:10;97178.53;;;14.63;96.61
1371;BME280;14306;49.942;11.570;2022-10-22T02:22:37;97168.59;;;14.79;95.81
1371;BME280;14306;49.942;11.570;2022-10-22T02:25:04;97175.81;;;14.63;96.67
1371;BME280;14306;49.942;11.570;2022-10-22T02:27:45;97171.31;;;14.47;96.92
1371;BME280;14306;49.942;11.570;2022-10-22T02:30:16;97166.13;;;14.54;96.88
1371;BME280;14306;49.942;11.570;2022-10-22T02:32:48;97169.81;;;14.70;95.93
1371;BME280;14306;49.942;11.570;2022-10-22T02:35:20;97171.59;;;14.66;96.05
1371;BME280;14306;49.942;11.570;2022-10-22T02:37:46;97165.09;;;14.58;96.52
1371;BME280;14306;49.942;11.570;2022-10-22T02:40:13;97160.25;;;14.43;97.27
1371;BME280;14306;49.942;11.570;2022-10-22T02:42:39;97163.84;;;14.35;98.05
1371;BME280;14306;49.942;11.570;2022-10-22T02:45:06;97155.53;;;14.52;97.56
1371;BME280;14306;49.942;11.570;2022-10-22T02:47:32;97155.78;;;14.59;96.66
1371;BME280;14306;49.942;11.570;2022-10-22T02:49:57;97160.22;;;14.64;96.50
1371;BME280;14306;49.942;11.570;2022-10-22T02:52:23;97167.41;;;14.68;96.59
1371;BME280;14306;49.942;11.570;2022-10-22T02:54:48;97170.72;;;14.74;96.44
1371;BME280;14306;49.942;11.570;2022-10-22T02:57:13;97184.38;;;14.86;95.79
1371;BME280;14306;49.942;11.570;2022-10-22T02:59:39;97183.56;;;14.85;95.79
1371;BME280;14306;49.942;11.570;2022-10-22T03:02:04;97192.72;;;15.01;95.32
1371;BME280;14306;49.942;11.570;2022-10-22T03:04:29;97193.16;;;14.91;95.30
1371;BME280;14306;49.942;11.570;2022-10-22T03:06:55;97193.44;;;14.78;96.17
1371;BME280;14306;49.942;11.570;2022-10-22T03:09:20;97186.56;;;14.60;96.51
1371;BME280;14306;49.942;11.570;2022-10-22T03:11:45;97185.34;;;14.69;96.23
1371;BME280;14306;49.942;11.570;2022-10-22T03:14:11;97186.63;;;14.84;96.44
1371;BME280;14306;49.942;11.570;2022-10-22T03:16:37;97182.09;;;14.88;95.73
1371;BME280;14306;49.942;11.570;2022-10-22T03:19:02;97180.44;;;14.95;95.59
1371;BME280;14306;49.942;11.570;2022-10-22T03:21:55;97184.81;;;14.76;96.32
1371;BME280;14306;49.942;11.570;2022-10-22T03:24:28;97183.69;;;14.77;96.34
1371;BME280;14306;49.942;11.570;2022-10-22T03:26:54;97179.91;;;14.69;96.75
1371;BME280;14306;49.942;11.570;2022-10-22T03:29:21;97171.13;;;14.64;97.13
1371;BME280;14306;49.942;11.570;2022-10-22T03:31:47;97181.19;;;14.84;95.76
1371;BME280;14306;49.942;11.570;2022-10-22T03:34:13;97180.09;;;14.97;95.16
1371;BME280;14306;49.942;11.570;2022-10-22T03:36:39;97188.72;;;14.99;95.04
1371;BME280;14306;49.942;11.570;2022-10-22T03:39:06;97189.56;;;15.11;94.69
1371;BME280;14306;49.942;11.570;2022-10-22T03:41:32;97169.91;;;15.30;93.87
1371;BME280;14306;49.942;11.570;2022-10-22T03:43:59;97183.75;;;15.01;94.15
1371;BME280;14306;49.942;11.570;2022-10-22T03:46:26;97194.00;;;15.04;94.41
1371;BME280;14306;49.942;11.570;2022-10-22T03:48:51;97186.75;;;15.32;93.27
1371;BME280;14306;49.942;11.570;2022-10-22T03:51:16;97198.31;;;15.17;94.17
1371;BME280;14306;49.942;11.570;2022-10-22T03:53:42;97188.75;;;15.11;94.60
1371;BME280;14306;49.942;11.570;2022-10-22T03:56:08;97193.69;;;15.29;93.55
1371;BME280;14306;49.942;11.570;2022-10-22T03:58:34;97192.31;;;15.23;93.87
1371;BME280;14306;49.942;11.570;2022-10-22T04:01:08;97196.91;;;14.99;95.50
1371;BME280;14306;49.942;11.570;2022-10-22T04:03:34;97206.72;;;15.12;94.52
1371;BME280;14306;49.942;11.570;2022-10-22T04:06:01;97206.72;;;15.00;94.60
1371;BME280;14306;49.942;11.570;2022-10-22T04:08:27;97215.44;;;15.05;94.19
1371;BME280;14306;49.942;11.570;2022-10-22T04:10:52;97232.38;;;14.99;95.19
1371;BME280;14306;49.942;11.570;2022-10-22T04:13:17;97244.22;;;15.15;94.35
1371;BME280;14306;49.942;11.570;2022-10-22T04:15:43;97253.69;;;15.17;94.21
1371;BME280;14306;49.942;11.570;2022-10-22T04:18:08;97260.16;;;15.13;94.22
1371;BME280;14306;49.942;11.570;2022-10-22T04:20:33;97261.72;;;15.02;94.67
1371;BME280;14306;49.942;11.570;2022-10-22T04:22:58;97260.75;;;15.18;94.35
1371;BME280;14306;49.942;11.570;2022-10-22T04:25:24;97270.16;;;15.09;94.90
1371;BME280;14306;49.942;11.570;2022-10-22T04:27:49;97274.19;;;15.03;95.96
1371;BME280;14306;49.942;11.570;2022-10-22T04:30:14;97275.00;;;15.03;96.44
1371;BME280;14306;49.942;11.570;2022-10-22T04:32:40;97285.16;;;15.15;96.39
1371;BME280;14306;49.942;11.570;2022-10-22T04:35:05;97276.78;;;15.20;96.01
1371;BME280;14306;49.942;11.570;2022-10-22T04:37:31;97277.91;;;15.19;95.56
1371;BME280;14306;49.942;11.570;2022-10-22T04:39:57;97286.88;;;15.19;94.18
1371;BME280;14306;49.942;11.570;2022-10-22T04:42:22;97280.66;;;15.19;93.72
1371;BME280;14306;49.942;11.570;2022-10-22T04:44:47;97275.47;;;15.05;94.06
1371;BME280;14306;49.942;11.570;2022-10-22T04:47:13;97283.22;;;15.15;93.95
1371;BME280;14306;49.942;11.570;2022-10-22T04:49:39;97281.75;;;15.18;94.12
1371;BME280;14306;49.942;11.570;2022-10-22T04:52:04;97287.41;;;15.01;94.54
1371;BME280;14306;49.942;11.570;2022-10-22T04:54:29;97286.25;;;15.02;94.85
1371;BME280;14306;49.942;11.570;2022-10-22T04:56:55;97289.16;;;15.17;94.46
1371;BME280;14306;49.942;11.570;2022-10-22T04:59:20;97288.69;;;15.15;93.65
1371;BME280;14306;49.942;11.570;2022-10-22T05:01:45;97284.53;;;14.97;94.42
1371;BME280;14306;49.942;11.570;2022-10-22T05:04:14;97281.19;;;14.92;94.51
1371;BME280;14306;49.942;11.570;2022-10-22T05:06:39;97288.69;;;15.15;94.12
1371;BME280;14306;49.942;11.570;2022-10-22T05:09:10;97286.03;;;15.07;93.92
1371;BME280;14306;49.942;11.570;2022-10-22T05:11:37;97295.97;;;15.11;94.36
1371;BME280;14306;49.942;11.570;2022-10-22T05:14:05;97294.50;;;15.26;93.40
1371;BME280;14306;49.942;11.570;2022-10-22T05:16:32;97294.00;;;15.00;94.20
1371;BME280;14306;49.942;11.570;2022-10-22T05:18:59;97290.56;;;15.03;94.18
1371;BME280;14306;49.942;11.570;2022-10-22T05:21:25;97303.53;;;15.06;94.07
1371;BME280;14306;49.942;11.570;2022-10-22T05:23:51;97299.09;;;15.01;93.43
1371;BME280;14306;49.942;11.570;2022-10-22T05:26:19;97313.31;;;15.07;93.99
1371;BME280;14306;49.942;11.570;2022-10-22T05:28:45;97320.38;;;15.08;93.53
1371;BME280;14306;49.942;11.570;2022-10-22T05:31:12;97322.91;;;15.13;93.04
1371;BME280;14306;49.942;11.570;2022-10-22T05:33:39;97328.03;;;15.14;93.79
1371;BME280;14306;49.942;11.570;2022-10-22T05:36:06;97325.50;;;15.09;92.90
1371;BME280;14306;49.942;11.570;2022-10-22T05:38:33;97333.22;;;15.07;93.76
1371;BME280;14306;49.942;11.570;2022-10-22T05:41:05;97326.78;;;14.71;95.04
1371;BME280;14306;49.942;11.570;2022-10-22T05:43:31;97322.09;;;15.12;93.19
1371;BME280;14306;49.942;11.570;2022-10-22T05:46:04;97334.06;;;15.20;91.73
1371;BME280;14306;49.942;11.570;2022-10-22T05:48:30;97339.56;;;14.99;92.91
1371;BME280;14306;49.942;11.570;2022-10-22T05:50:56;97341.28;;;15.04;92.78
1371;BME280;14306;49.942;11.570;2022-10-22T05:53:21;97345.13;;;15.03;93.11
1371;BME280;14306;49.942;11.570;2022-10-22T05:55:47;97339.34;;;15.04;92.11
1371;BME280;14306;49.942;11.570;2022-10-22T05:58:13;97338.78;;;15.11;92.50
1371;BME280;14306;49.942;11.570;2022-10-22T06:00:38;97342.59;;;14.98;92.95
1371;BME280;14306;49.942;11.570;2022-10-22T06:03:04;97339.56;;;14.99;92.60
1371;BME280;14306;49.942;11.570;2022-10-22T06:05:29;97336.53;;;15.13;92.62
1371;BME280;14306;49.942;11.570;2022-10-22T06:07:55;97336.75;;;15.08;93.36
1371;BME280;14306;49.942;11.570;2022-10-22T06:10:21;97335.22;;;14.98;93.68
1371;BME280;14306;49.942;11.570;2022-10-22T06:12:48;97330.16;;;15.09;93.44
1371;BME280;14306;49.942;11.570;2022-10-22T06:15:15;97340.59;;;15.07;93.79
1371;BME280;14306;49.942;11.570;2022-10-22T06:17:43;97343.22;;;15.03;92.83
1371;BME280;14306;49.942;11.570;2022-10-22T06:20:10;97353.31;;;14.82;95.01
1371;BME280;14306;49.942;11.570;2022-10-22T06:22:35;97348.88;;;14.98;94.36
1371;BME280;14306;49.942;11.570;2022-10-22T06:25:01;97354.72;;;15.09;94.29
1371;BME280;14306;49.942;11.570;2022-10-22T06:27:26;97358.69;;;15.11;94.55
1371;BME280;14306;49.942;11.570;2022-10-22T06:29:51;97357.22;;;15.14;95.16
1371;BME280;14306;49.942;11.570;2022-10-22T06:32:17;97363.72;;;15.09;95.40
1371;BME280;14306;49.942;11.570;2022-10-22T06:34:42;97366.81;;;15.20;94.37
1371;BME280;14306;49.942;11.570;2022-10-22T06:37:08;97374.09;;;15.16;94.75
1371;BME280;14306;49.942;11.570;2022-10-22T06:39:34;97381.84;;;15.05;94.02
1371;BME280;14306;49.942;11.570;2022-10-22T06:41:59;97380.13;;;15.01;94.72
1371;BME280;14306;49.942;11.570;2022-10-22T06:44:24;97380.78;;;14.77;95.40
1371;BME280;14306;49.942;11.570;2022-10-22T06:46:50;97392.19;;;15.00;94.44
1371;BME280;14306;49.942;11.570;2022-10-22T06:49:19;97394.97;;;15.12;93.94
1371;BME280;14306;49.942;11.570;2022-10-22T06:51:48;97403.88;;;15.00;93.59
1371;BME280;14306;49.942;11.570;2022-10-22T06:54:14;97401.81;;;15.18;92.99
1371;BME280;14306;49.942;11.570;2022-10-22T06:56:39;97410.81;;;14.98;93.75
1371;BME280;14306;49.942;11.570;2022-10-22T06:59:05;97412.34;;;15.07;93.19
1371;BME280;14306;49.942;11.570;2022-10-22T07:01:32;97413.47;;;15.27;92.66
1371;BME280;14306;49.942;11.570;2022-10-22T07:03:58;97419.06;;;15.30;92.33
1371;BME280;14306;49.942;11.570;2022-10-22T07:06:25;97422.78;;;15.26;91.74
1371;BME280;14306;49.942;11.570;2022-10-22T07:08:52;97434.59;;;15.38;91.46
1371;BME280;14306;49.942;11.570;2022-10-22T07:11:20;97439.31;;;15.50;91.40
1371;BME280;14306;49.942;11.570;2022-10-22T07:13:47;97437.19;;;15.35;91.88
1371;BME280;14306;49.942;11.570;2022-10-22T07:16:13;97433.97;;;15.53;91.76
1371;BME280;14306;49.942;11.570;2022-10-22T07:18:40;97444.09;;;15.53;91.66
1371;BME280;14306;49.942;11.570;2022-10-22T07:21:06;97444.72;;;15.38;92.80
1371;BME280;14306;49.942;11.570;2022-10-22T07:23:32;97428.00;;;15.19;93.31
1371;BME280;14306;49.942;11.570;2022-10-22T07:25:58;97423.84;;;15.33;92.67
1371;BME280;14306;49.942;11.570;2022-10-22T07:28:24;97421.31;;;15.08;92.55
1371;BME280;14306;49.942;11.570;2022-10-22T07:30:49;97445.78;;;15.16;92.43
1371;BME280;14306;49.942;11.570;2022-10-22T07:33:18;97449.38;;;15.08;93.32
1371;BME280;14306;49.942;11.570;2022-10-22T07:35:43;97438.38;;;15.25;92.29
1371;BME280;14306;49.942;11.570;2022-10-22T07:38:09;97439.72;;;15.40;92.36
1371;BME280;14306;49.942;11.570;2022-10-22T07:40:34;97436.63;;;15.62;91.54
1371;BME280;14306;49.942;11.570;2022-10-22T07:43:00;97447.94;;;15.31;92.81
1371;BME280;14306;49.942;11.570;2022-10-22T07:45:26;97463.00;;;15.79;91.57
1371;BME280;14306;49.942;11.570;2022-10-22T07:47:51;97460.44;;;15.74;90.51
1371;BME280;14306;49.942;11.570;2022-10-22T07:50:17;97477.16;;;15.72;89.52
1371;BME280;14306;49.942;11.570;2022-10-22T07:52:42;97472.88;;;15.83;89.50
1371;BME280;14306;49.942;11.570;2022-10-22T07:55:08;97485.34;;;15.72;89.78
1371;BME280;14306;49.942;11.570;2022-10-22T07:57:33;97480.97;;;15.80;89.57
1371;BME280;14306;49.942;11.570;2022-10-22T07:59:59;97483.78;;;16.48;89.37
1371;BME280;14306;49.942;11.570;2022-10-22T08:02:25;97482.41;;;18.05;87.25
1371;BME280;14306;49.942;11.570;2022-10-22T08:04:50;97471.88;;;20.42;81.74
1371;BME280;14306;49.942;11.570;2022-10-22T08:07:16;97486.69;;;22.13;74.15
1371;BME280;14306;49.942;11.570;2022-10-22T08:09:42;97481.34;;;21.12;73.28
1371;BME280;14306;49.942;11.570;2022-10-22T08:12:07;97483.63;;;20.01;77.14
1371;BME280;14306;49.942;11.570;2022-10-22T08:14:32;97490.06;;;18.86;79.60
1371;BME280;14306;49.942;11.570;2022-10-22T08:16:58;97500.84;;;18.79;81.78
1371;BME280;14306;49.942;11.570;2022-10-22T08:19:23;97506.16;;;19.34;77.22
1371;BME280;14306;49.942;11.570;2022-10-22T08:21:49;97517.69;;;20.12;76.63
1371;BME280;14306;49.942;11.570;2022-10-22T08:24:14;97511.06;;;19.79;73.57
1371;BME280;14306;49.942;11.570;2022-10-22T08:26:41;97513.66;;;19.22;79.13
1371;BME280;14306;49.942;11.570;2022-10-22T08:29:07;97510.31;;;18.97;80.76
1371;BME280;14306;49.942;11.570;2022-10-22T08:31:33;97511.97;;;20.21;77.84
1371;BME280;14306;49.942;11.570;2022-10-22T08:33:58;97512.66;;;21.27;75.52
1371;BME280;14306;49.942;11.570;2022-10-22T08:36:23;97514.00;;;21.10;70.63
1371;BME280;14306;49.942;11.570;2022-10-22T08:38:49;97525.19;;;20.34;71.98
1371;BME280;14306;49.942;11.570;2022-10-22T08:41:19;97522.94;;;20.40;71.81
1371;BME280;14306;49.942;11.570;2022-10-22T08:49:25;97530.00;;;20.82;72.71
1371;BME280;14306;49.942;11.570;2022-10-22T08:51:51;97532.88;;;20.67;71.56
1371;BME280;14306;49.942;11.570;2022-10-22T08:54:27;97540.06;;;19.95;72.04
1371;BME280;14306;49.942;11.570;2022-10-22T08:59:49;97532.59;;;20.11;72.68
1371;BME280;14306;49.942;11.570;2022-10-22T09:07:42;97547.72;;;19.67;78.11
1371;BME280;14306;49.942;11.570;2022-10-22T09:10:10;97552.66;;;19.77;79.05
1371;BME280;14306;49.942;11.570;2022-10-22T09:12:37;97550.66;;;19.59;79.65
1371;BME280;14306;49.942;11.570;2022-10-22T09:15:02;97553.91;;;19.99;78.65
1371;BME280;14306;49.942;11.570;2022-10-22T09:17:35;97559.44;;;20.78;74.47
1371;BME280;14306;49.942;11.570;2022-10-22T09:22:41;97559.91;;;19.85;77.33
1371;BME280;14306;49.942;11.570;2022-10-22T09:25:23;97564.44;;;19.78;76.97
1371;BME280;14306;49.942;11.570;2022-10-22T09:27:50;97564.91;;;19.30;75.54
1371;BME280;14306;49.942;11.570;2022-10-22T09:30:19;97557.16;;;19.19;76.76
1371;BME280;14306;49.942;11.570;2022-10-22T09:32:44;97567.44;;;19.23;75.91
1371;BME280;14306;49.942;11.570;2022-10-22T09:35:11;97568.59;;;19.06;78.09
1371;BME280;14306;49.942;11.570;2022-10-22T09:37:47;97569.94;;;18.81;79.06
1371;BME280;14306;49.942;11.570;2022-10-22T09:40:13;97569.59;;;19.13;75.09
1371;BME280;14306;49.942;11.570;2022-10-22T09:42:39;97571.81;;;19.08;76.87
1371;BME280;14306;49.942;11.570;2022-10-22T09:45:05;97564.03;;;19.26;75.95
1371;BME280;14306;49.942;11.570;2022-10-22T09:47:40;97576.47;;;18.76;77.29
1371;BME280;14306;49.942;11.570;2022-10-22T09:50:34;97569.13;;;19.11;75.40
1371;BME280;14306;49.942;11.570;2022-10-22T09:53:25;97569.22;;;19.46;74.75
1371;BME280;14306;49.942;11.570;2022-10-22T09:55:53;97574.38;;;19.32;75.24
1371;BME280;14306;49.942;11.570;2022-10-22T09:58:19;97577.34;;;19.93;75.06
1371;BME280;14306;49.942;11.570;2022-10-22T10:00:52;97573.34;;;19.90;75.29
1371;BME280;14306;49.942;11.570;2022-10-22T10:03:20;97568.75;;;20.51;72.98
1371;BME280;14306;49.942;11.570;2022-10-22T10:05:48;97579.72;;;20.48;71.49
1371;BME280;14306;49.942;11.570;2022-10-22T10:08:16;97573.06;;;20.71;70.01
1371;BME280;14306;49.942;11.570;2022-10-22T10:10:48;97573.75;;;21.06;70.11
1371;BME280;14306;49.942;11.570;2022-10-22T10:13:29;97580.47;;;21.09;67.47
1371;BME280;14306;49.942;11.570;2022-10-22T10:16:24;97574.31;;;20.74;70.37
1371;BME280;14306;49.942;11.570;2022-10-22T10:21:37;97568.03;;;21.67;67.89
1371;BME280;14306;49.942;11.570;2022-10-22T10:26:56;97577.41;;;21.62;68.95
1371;BME280;14306;49.942;11.570;2022-10-22T10:35:27;97575.78;;;21.58;63.34
1371;BME280;14306;49.942;11.570;2022-10-22T10:40:54;97576.31;;;21.93;65.38
1371;BME280;14306;49.942;11.570;2022-10-22T10:43:31;97581.00;;;21.89;66.32
1371;BME280;14306;49.942;11.570;2022-10-22T10:46:16;97582.91;;;21.85;64.06
1371;BME280;14306;49.942;11.570;2022-10-22T10:48:55;97590.22;;;21.51;68.39
1371;BME280;14306;49.942;11.570;2022-10-22T10:51:46;97585.22;;;21.83;63.64
1371;BME280;14306;49.942;11.570;2022-10-22T10:54:24;97588.31;;;21.55;64.96
1371;BME280;14306;49.942;11.570;2022-10-22T10:57:18;97583.66;;;21.33;63.65
1371;BME280;14306;49.942;11.570;2022-10-22T11:00:15;97582.28;;;21.46;64.58
1371;BME280;14306;49.942;11.570;2022-10-22T11:08:20;97577.41;;;21.14;64.49
1371;BME280;14306;49.942;11.570;2022-10-22T11:11:17;97580.63;;;21.42;65.95
1371;BME280;14306;49.942;11.570;2022-10-22T11:13:51;97584.22;;;21.94;63.44
1371;BME280;14306;49.942;11.570;2022-10-22T11:16:24;97590.66;;;22.35;63.22
1371;BME280;14306;49.942;11.570;2022-10-22T11:18:59;97591.81;;;22.34;62.42
1371;BME280;14306;49.942;11.570;2022-10-22T11:21:40;97591.81;;;23.00;61.61
1371;BME280;14306;49.942;11.570;2022-10-22T11:24:28;97592.47;;;22.87;61.23
1371;BME280;14306;49.942;11.570;2022-10-22T11:29:51;97595.13;;;22.13;60.07
1371;BME280;14306;49.942;11.570;2022-10-22T11:32:20;97584.78;;;22.36;60.04
1371;BME280;14306;49.942;11.570;2022-10-22T11:34:50;97593.81;;;22.33;58.99
1371;BME280;14306;49.942;11.570;2022-10-22T11:37:19;97588.41;;;22.44;59.19
1371;BME280;14306;49.942;11.570;2022-10-22T11:40:04;97589.16;;;21.82;62.62
1371;BME280;14306;49.942;11.570;2022-10-22T11:42:35;97598.19;;;22.08;60.47
1371;BME280;14306;49.942;11.570;2022-10-22T11:50:47;97593.63;;;20.96;62.66
1371;BME280;14306;49.942;11.570;2022-10-22T11:53:34;97595.41;;;21.08;64.17
1371;BME280;14306;49.942;11.570;2022-10-22T12:11:19;97587.88;;;20.25;66.12
1371;BME280;14306;49.942;11.570;2022-10-22T12:13:55;97596.56;;;20.65;66.68
1371;BME280;14306;49.942;11.570;2022-10-22T12:19:03;97589.66;;;21.16;63.92
1371;BME280;14306;49.942;11.570;2022-10-22T12:21:31;97591.66;;;21.42;62.85
1371;BME280;14306;49.942;11.570;2022-10-22T12:23:58;97594.25;;;21.31;64.21
1371;BME280;14306;49.942;11.570;2022-10-22T12:26:29;97592.53;;;21.72;61.96
1371;BME280;14306;49.942;11.570;2022-10-22T12:28:59;97588.25;;;21.74;62.03
1371;BME280;14306;49.942;11.570;2022-10-22T12:31:25;97594.50;;;21.97;60.10
1371;BME280;14306;49.942;11.570;2022-10-22T12:33:58;97583.59;;;21.56;61.40
1371;BME280;14306;49.942;11.570;2022-10-22T12:36:32;97594.97;;;22.03;61.56
1371;BME280;14306;49.942;11.570;2022-10-22T12:39:03;97582.06;;;21.81;61.14
1371;BME280;14306;49.942;11.570;2022-10-22T12:41:33;97586.91;;;21.39;63.15
1371;BME280;14306;49.942;11.570;2022-10-22T12:44:03;97588.44;;;21.62;61.34
1371;BME280;14306;49.942;11.570;2022-10-22T12:46:30;97578.13;;;21.59;60.49
1371;BME280;14306;49.942;11.570;2022-10-22T12:49:12;97586.59;;;21.96;61.46
1371;BME280;14306;49.942;11.570;2022-10-22T12:51:38;97588.81;;;22.13;61.20
1371;BME280;14306;49.942;11.570;2022-10-22T12:54:11;97592.53;;;22.27;59.34
1371;BME280;14306;49.942;11.570;2022-10-22T12:56:38;97587.19;;;22.75;58.99
1371;BME280;14306;49.942;11.570;2022-10-22T13:01:41;97578.56;;;22.46;58.86
1371;BME280;14306;49.942;11.570;2022-10-22T13:09:42;97579.94;;;21.71;59.52
1371;BME280;14306;49.942;11.570;2022-10-22T13:12:09;97578.50;;;21.80;59.22
1371;BME280;14306;49.942;11.570;2022-10-22T13:14:43;97574.75;;;21.69;60.19
1371;BME280;14306;49.942;11.570;2022-10-22T13:17:13;97581.59;;;21.53;59.75
1371;BME280;14306;49.942;11.570;2022-10-22T13:24:48;97568.66;;;21.08;60.01
1371;BME280;14306;49.942;11.570;2022-10-22T13:27:15;97566.38;;;21.14;60.45
1371;BME280;14306;49.942;11.570;2022-10-22T13:29:40;97568.63;;;21.31;59.71
1371;BME280;14306;49.942;11.570;2022-10-22T13:32:24;97566.25;;;21.55;58.57
1371;BME280;14306;49.942;11.570;2022-10-22T13:34:50;97570.31;;;21.13;60.03
1371;BME280;14306;49.942;11.570;2022-10-22T13:37:15;97569.94;;;20.92;59.09
1371;BME280;14306;49.942;11.570;2022-10-22T13:39:40;97574.56;;;20.46;60.94
1371;BME280;14306;49.942;11.570;2022-10-22T13:42:11;97571.31;;;20.41;62.10
1371;BME280;14306;49.942;11.570;2022-10-22T13:44:36;97562.31;;;20.06;62.50
1371;BME280;14306;49.942;11.570;2022-10-22T13:47:02;97563.38;;;20.01;63.08
1371;BME280;14306;49.942;11.570;2022-10-22T13:49:27;97564.00;;;19.76;63.53
1371;BME280;14306;49.942;11.570;2022-10-22T13:51:52;97559.25;;;19.92;64.11
1371;BME280;14306;49.942;11.570;2022-10-22T13:54:20;97558.03;;;20.08;63.05
1371;BME280;14306;49.942;11.570;2022-10-22T13:56:46;97557.91;;;20.20;62.90
1371;BME280;14306;49.942;11.570;2022-10-22T13:59:12;97551.66;;;20.04;62.75
1371;BME280;14306;49.942;11.570;2022-10-22T14:01:37;97555.91;;;19.83;63.59
1371;BME280;14306;49.942;11.570;2022-10-22T14:04:05;97559.44;;;19.83;64.19
1371;BME280;14306;49.942;11.570;2022-10-22T14:06:32;97551.06;;;19.95;63.65
1371;BME280;14306;49.942;11.570;2022-10-22T14:09:04;97553.94;;;20.18;62.98
1371;BME280;14306;49.942;11.570;2022-10-22T14:11:30;97559.75;;;20.13;62.56
1371;BME280;14306;49.942;11.570;2022-10-22T14:13:57;97560.28;;;20.03;62.43
1371;BME280;14306;49.942;11.570;2022-10-22T14:16:25;97565.41;;;20.04;62.88
1371;BME280;14306;49.942;11.570;2022-10-22T14:18:51;97566.13;;;20.17;62.38
1371;BME280;14306;49.942;11.570;2022-10-22T14:21:17;97562.84;;;20.11;62.07
1371;BME280;14306;49.942;11.570;2022-10-22T14:23:45;97558.22;;;20.15;62.02
1371;BME280;14306;49.942;11.570;2022-10-22T14:28:45;97560.22;;;20.18;62.24
1371;BME280;14306;49.942;11.570;2022-10-22T14:31:10;97563.22;;;20.10;62.21
1371;BME280;14306;49.942;11.570;2022-10-22T14:33:35;97556.56;;;19.95;62.69
1371;BME280;14306;49.942;11.570;2022-10-22T14:36:01;97556.25;;;19.62;64.08
1371;BME280;14306;49.942;11.570;2022-10-22T14:38:27;97557.84;;;19.63;64.32
1371;BME280;14306;49.942;11.570;2022-10-22T14:40:53;97567.13;;;19.74;64.08
1371;BME280;14306;49.942;11.570;2022-10-22T14:43:21;97561.94;;;19.88;63.71